地図

経路データ

SID SEASON NUMBER BASIN SUBBASIN NAME ISO_TIME NATURE LAT LON WMO_WIND WMO_PRES WMO_AGENCY TRACK_TYPE DIST2LAND LANDFALL IFLAG USA_AGENCY USA_ATCF_ID USA_LAT USA_LON USA_RECORD USA_STATUS USA_WIND USA_PRES USA_SSHS USA_R34_NE USA_R34_SE USA_R34_SW USA_R34_NW USA_R50_NE USA_R50_SE USA_R50_SW USA_R50_NW USA_R64_NE USA_R64_SE USA_R64_SW USA_R64_NW USA_POCI USA_ROCI USA_RMW USA_EYE TOKYO_LAT TOKYO_LON TOKYO_GRADE TOKYO_WIND TOKYO_PRES TOKYO_R50_DIR TOKYO_R50_LONG TOKYO_R50_SHORT TOKYO_R30_DIR TOKYO_R30_LONG TOKYO_R30_SHORT TOKYO_LAND CMA_LAT CMA_LON CMA_CAT CMA_WIND CMA_PRES HKO_LAT HKO_LON HKO_CAT HKO_WIND HKO_PRES NEWDELHI_LAT NEWDELHI_LON NEWDELHI_GRADE NEWDELHI_WIND NEWDELHI_PRES NEWDELHI_CI NEWDELHI_DP NEWDELHI_POCI REUNION_LAT REUNION_LON REUNION_TYPE REUNION_WIND REUNION_PRES REUNION_TNUM REUNION_CI REUNION_RMW REUNION_R34_NE REUNION_R34_SE REUNION_R34_SW REUNION_R34_NW REUNION_R50_NE REUNION_R50_SE REUNION_R50_SW REUNION_R50_NW REUNION_R64_NE REUNION_R64_SE REUNION_R64_SW REUNION_R64_NW BOM_LAT BOM_LON BOM_TYPE BOM_WIND BOM_PRES BOM_TNUM BOM_CI BOM_RMW BOM_R34_NE BOM_R34_SE BOM_R34_SW BOM_R34_NW BOM_R50_NE BOM_R50_SE BOM_R50_SW BOM_R50_NW BOM_R64_NE BOM_R64_SE BOM_R64_SW BOM_R64_NW BOM_ROCI BOM_POCI BOM_EYE BOM_POS_METHOD BOM_PRES_METHOD NADI_LAT NADI_LON NADI_CAT NADI_WIND NADI_PRES WELLINGTON_LAT WELLINGTON_LON WELLINGTON_WIND WELLINGTON_PRES DS824_LAT DS824_LON DS824_STAGE DS824_WIND DS824_PRES TD9636_LAT TD9636_LON TD9636_STAGE TD9636_WIND TD9636_PRES TD9635_LAT TD9635_LON TD9635_WIND TD9635_PRES TD9635_ROCI NEUMANN_LAT NEUMANN_LON NEUMANN_CLASS NEUMANN_WIND NEUMANN_PRES MLC_LAT MLC_LON MLC_CLASS MLC_WIND MLC_PRES USA_GUST BOM_GUST BOM_GUST_PER REUNION_GUST REUNION_GUST_PER USA_SEAHGT USA_SEARAD_NE USA_SEARAD_SE USA_SEARAD_SW USA_SEARAD_NW STORM_SPEED STORM_DIR
1915052S19115 1915 6 SI WA NOT_NAMED 1915-02-21 06:00:00 NR -18.6000 114.700 main 301 291 _____O________ -1 -18.6000 114.700 99 9.90000 2 193
1915052S19115 1915 6 SI WA NOT_NAMED 1915-02-21 09:00:00 NR -18.7090 114.678 main 291 282 _____P________ -1 -18.7090 114.678 99 2 191
1915052S19115 1915 6 SI WA NOT_NAMED 1915-02-21 12:00:00 NR -18.8196 114.650 main 282 279 _____P________ -1 -18.8196 114.650 99 2 197
1915052S19115 1915 6 SI WA NOT_NAMED 1915-02-21 15:00:00 NR -18.9333 114.610 main 279 270 _____P________ -1 -18.9333 114.610 99 3 202
1915052S19115 1915 6 SI WA NOT_NAMED 1915-02-21 18:00:00 NR -19.0516 114.550 main 261 257 _____P________ -1 -19.0516 114.550 99 3 210
1915052S19115 1915 6 SI WA NOT_NAMED 1915-02-21 21:00:00 NR -19.1760 114.466 main 257 254 _____P________ -1 -19.1760 114.466 99 3 217
1915052S19115 1915 6 SI WA NOT_NAMED 1915-02-22 00:00:00 NR -19.3079 114.350 main 254 252 _____P________ -1 -19.3079 114.350 99 4 223
1915052S19115 1915 6 SI WA NOT_NAMED 1915-02-22 03:00:00 NR -19.4488 114.197 main 259 249 _____P________ -1 -19.4488 114.197 99 4 228
1915052S19115 1915 6 SI WA NOT_NAMED 1915-02-22 06:00:00 NR -19.6000 114.000 main 252 235 _____O________ -1 -19.6000 114.000 99 9.90000 5 233
1915052S19115 1915 6 SI WA NOT_NAMED 1915-02-22 09:00:00 NR -19.7662 113.757 main 235 218 _____P________ -1 -19.7662 113.757 99 6 233
1915052S19115 1915 6 SI WA NOT_NAMED 1915-02-22 12:00:00 NR -19.9657 113.482 main 218 203 _____P________ -1 -19.9657 113.482 99 7 229
1915052S19115 1915 6 SI WA NOT_NAMED 1915-02-22 15:00:00 NR -20.2202 113.195 main 207 187 _____P________ -1 -20.2202 113.195 99 8 222
1915052S19115 1915 6 SI WA NOT_NAMED 1915-02-22 18:00:00 NR -20.5519 112.912 main 184 167 _____P________ -1 -20.5519 112.912 99 9 214
1915052S19115 1915 6 SI WA NOT_NAMED 1915-02-22 21:00:00 NR -20.9828 112.653 main 167 159 _____P________ -1 -20.9828 112.653 99 11 204
1915052S19115 1915 6 SI WA NOT_NAMED 1915-02-23 00:00:00 NR -21.5357 112.436 main 168 140 _____P________ -1 -21.5357 112.436 99 13 196
1915052S19115 1915 6 SI WA NOT_NAMED 1915-02-23 03:00:00 NR -22.2336 112.278 main 140 135 _____P________ -1 -22.2336 112.278 99 16 188
1915052S19115 1915 6 SI WA NOT_NAMED 1915-02-23 06:00:00 NR -23.1000 112.200 main 153 111 _____O________ -1 -23.1000 112.200 99 9.90000 22 180
1915052S19115 1915 6 SI WA NOT_NAMED 1915-02-23 09:00:00 NR -24.3951 112.283 main 111 95 _____P________ -1 -24.3951 112.283 99 28 175
1915052S19115 1915 6 SI WA NOT_NAMED 1915-02-23 12:00:00 NR -25.8951 112.452 main 82 79 _____P________ -1 -25.8951 112.452 99 32 173
1915052S19115 1915 6 SI WA NOT_NAMED 1915-02-23 15:00:00 NR -27.5246 112.691 main 122 122 _____P________ -1 -27.5246 112.691 99 34 172
1915052S19115 1915 6 SI WA NOT_NAMED 1915-02-23 18:00:00 NR -29.2062 112.983 main 161 161 _____P________ -1 -29.2062 112.983 99 34 171
1915052S19115 1915 6 SI WA NOT_NAMED 1915-02-23 21:00:00 NR -30.8618 113.312 main 177 175 _____P________ -1 -30.8618 113.312 99 33 170
1915052S19115 1915 6 SI WA NOT_NAMED 1915-02-24 00:00:00 NR -32.4133 113.656 main 180 92 _____P________ -1 -32.4133 113.656 99 30 169
1915052S19115 1915 6 SI WA NOT_NAMED 1915-02-24 03:00:00 NR -33.7842 113.994 main 92 80 _____P________ -1 -33.7842 113.994 99 26 168
1915052S19115 1915 6 SI WA NOT_NAMED 1915-02-24 06:00:00 NR -34.9000 114.300 main 91 91 _____O________ -1 -34.9000 114.300 99 9.90000 20 167
1915052S19115 1915 6 SI WA NOT_NAMED 1915-02-24 09:00:00 NR -35.7075 114.553 main 151 151 _____P________ -1 -35.7075 114.553 99 14 165
1915052S19115 1915 6 SI WA NOT_NAMED 1915-02-24 12:00:00 NR -36.2304 114.753 main 189 189 _____P________ -1 -36.2304 114.753 99 9 161
1915052S19115 1915 6 SI WA NOT_NAMED 1915-02-24 15:00:00 NR -36.5110 114.904 main 213 213 _____P________ -1 -36.5110 114.904 99 4 150
1915052S19115 1915 6 SI WA NOT_NAMED 1915-02-24 18:00:00 NR -36.5904 115.014 main 219 206 _____P________ -1 -36.5904 115.014 99 1 89
1915052S19115 1915 6 SI WA NOT_NAMED 1915-02-24 21:00:00 NR -36.5090 115.090 main 206 185 _____P________ -1 -36.5090 115.090 99 3 20
1915052S19115 1915 6 SI WA NOT_NAMED 1915-02-25 00:00:00 NR -36.3069 115.141 main 185 152 _____P________ -1 -36.3069 115.141 99 5 8
1915052S19115 1915 6 SI WA NOT_NAMED 1915-02-25 03:00:00 NR -36.0239 115.175 main 152 123 _____P________ -1 -36.0239 115.175 99 6 3
1915052S19115 1915 6 SI WA NOT_NAMED 1915-02-25 06:00:00 NR -35.7000 115.200 main 123 _____O________ -1 -35.7000 115.200 99 9.90000 7 0

IBTrACS Databaseについて

本データベースは、米国NOAAが公開する1842年以降の世界の熱帯低気圧のベストトラックデータアーカイブInternational Best Track Archive for Climate Stewardship (IBTrACS)を、ウェブで閲覧しやすい形式に変換したものです。

最終更新日:2021-11-26